Terminal Aerodrome Forecast
Issued by NWS

Home | Current Version | Previous Version | Text Only | Print | Product List | Glossary On
Versions: 1 2 3 4 5 6 7 8 9 10 11 12 13 14 15 16 17 18 19 20 21
000
FTUS41 KPBZ 040150 AAA
TAFDUJ
TAF AMD
KDUJ 040150Z 0402/0424 07005KT P6SM BKN070
     FM040400 03005KT 4SM -RA BKN015
     FM040600 VRB03KT 2SM RA BR BKN008
     FM041000 VRB05KT 3SM -SHRA BR OVC006
     FM041600 32008KT P6SM BKN020
     FM041900 33008KT P6SM SCT025=

USA.gov is the U.S. government's official web portal to all federal, state and local government web resources and services.